METAR Data
IDs: Format: Raw Decoded Include TAF

Data at: 1603 UTC 22 Sep 2019

KLGA 221551Z 17008KT 10SM FEW090 FEW200 FEW250 29/14 A3013 RMK AO2 SLP202 T02940139 $

KLGA 221433Z 2215/2318 21007KT P6SM FEW250
  FM221900 19010KT P6SM FEW050 FEW250
  FM222100 19012G17KT P6SM FEW050 SCT250
  FM230100 21009KT P6SM FEW050 SCT250
  FM231600 21013KT P6SM SCT050 SCT090 SCT250